METAR Data
IDs: Format: Raw Decoded Include TAF

Data at: 0155 UTC 29 May 2022

LFSB 290130Z AUTO 32005KT CAVOK 11/05 Q1013 NOSIG